sensor_id;sensor_type;location;lat;lon;timestamp;P1;durP1;ratioP1;P2;durP2;ratioP2
9334;SDS011;4706;41.844;26.082;2024-03-08T00:00:40;37.17;;;29.92;;
9334;SDS011;4706;41.844;26.082;2024-03-08T00:03:08;34.80;;;29.13;;
9334;SDS011;4706;41.844;26.082;2024-03-08T00:05:35;36.08;;;28.50;;
9334;SDS011;4706;41.844;26.082;2024-03-08T00:08:01;29.77;;;24.02;;
9334;SDS011;4706;41.844;26.082;2024-03-08T00:10:27;28.27;;;22.38;;
9334;SDS011;4706;41.844;26.082;2024-03-08T00:12:54;24.60;;;21.48;;
9334;SDS011;4706;41.844;26.082;2024-03-08T00:15:19;31.80;;;26.83;;
9334;SDS011;4706;41.844;26.082;2024-03-08T00:17:49;29.13;;;24.35;;
9334;SDS011;4706;41.844;26.082;2024-03-08T00:20:15;30.60;;;24.08;;
9334;SDS011;4706;41.844;26.082;2024-03-08T00:22:43;33.90;;;26.17;;
9334;SDS011;4706;41.844;26.082;2024-03-08T00:25:08;31.35;;;26.55;;
9334;SDS011;4706;41.844;26.082;2024-03-08T00:27:34;31.02;;;26.13;;
9334;SDS011;4706;41.844;26.082;2024-03-08T00:30:00;30.52;;;24.90;;
9334;SDS011;4706;41.844;26.082;2024-03-08T00:32:26;28.95;;;23.67;;
9334;SDS011;4706;41.844;26.082;2024-03-08T00:34:56;28.58;;;25.45;;
9334;SDS011;4706;41.844;26.082;2024-03-08T00:37:22;31.45;;;25.10;;
9334;SDS011;4706;41.844;26.082;2024-03-08T00:39:49;28.45;;;25.45;;
9334;SDS011;4706;41.844;26.082;2024-03-08T00:42:15;29.40;;;26.17;;
9334;SDS011;4706;41.844;26.082;2024-03-08T00:44:41;30.23;;;26.95;;
9334;SDS011;4706;41.844;26.082;2024-03-08T00:47:07;30.95;;;27.70;;
9334;SDS011;4706;41.844;26.082;2024-03-08T00:49:33;32.90;;;27.48;;
9334;SDS011;4706;41.844;26.082;2024-03-08T00:51:58;35.40;;;30.10;;
9334;SDS011;4706;41.844;26.082;2024-03-08T00:54:24;31.48;;;28.15;;
9334;SDS011;4706;41.844;26.082;2024-03-08T00:56:49;32.38;;;28.63;;
9334;SDS011;4706;41.844;26.082;2024-03-08T00:59:14;31.83;;;27.45;;
9334;SDS011;4706;41.844;26.082;2024-03-08T01:01:40;29.85;;;25.73;;
9334;SDS011;4706;41.844;26.082;2024-03-08T01:04:06;30.00;;;26.67;;
9334;SDS011;4706;41.844;26.082;2024-03-08T01:06:33;30.17;;;24.90;;
9334;SDS011;4706;41.844;26.082;2024-03-08T01:08:59;32.83;;;26.52;;
9334;SDS011;4706;41.844;26.082;2024-03-08T01:11:24;37.22;;;25.73;;
9334;SDS011;4706;41.844;26.082;2024-03-08T01:13:50;30.08;;;25.92;;
9334;SDS011;4706;41.844;26.082;2024-03-08T01:16:15;28.33;;;23.70;;
9334;SDS011;4706;41.844;26.082;2024-03-08T01:18:42;26.55;;;23.75;;
9334;SDS011;4706;41.844;26.082;2024-03-08T01:21:08;26.50;;;23.40;;
9334;SDS011;4706;41.844;26.082;2024-03-08T01:23:34;26.77;;;23.20;;
9334;SDS011;4706;41.844;26.082;2024-03-08T01:26:00;25.33;;;22.63;;
9334;SDS011;4706;41.844;26.082;2024-03-08T01:28:27;28.17;;;23.60;;
9334;SDS011;4706;41.844;26.082;2024-03-08T01:30:53;25.65;;;22.90;;
9334;SDS011;4706;41.844;26.082;2024-03-08T01:33:25;25.80;;;22.95;;
9334;SDS011;4706;41.844;26.082;2024-03-08T01:35:52;27.48;;;23.08;;
9334;SDS011;4706;41.844;26.082;2024-03-08T01:38:18;26.90;;;22.80;;
9334;SDS011;4706;41.844;26.082;2024-03-08T01:40:46;27.65;;;23.42;;
9334;SDS011;4706;41.844;26.082;2024-03-08T01:43:20;27.63;;;23.15;;
9334;SDS011;4706;41.844;26.082;2024-03-08T01:45:46;26.65;;;22.90;;
9334;SDS011;4706;41.844;26.082;2024-03-08T01:48:11;29.45;;;24.48;;
9334;SDS011;4706;41.844;26.082;2024-03-08T01:50:38;25.65;;;22.90;;
9334;SDS011;4706;41.844;26.082;2024-03-08T01:53:04;26.80;;;23.60;;
9334;SDS011;4706;41.844;26.082;2024-03-08T01:55:31;26.80;;;23.02;;
9334;SDS011;4706;41.844;26.082;2024-03-08T01:57:57;29.67;;;23.02;;
9334;SDS011;4706;41.844;26.082;2024-03-08T02:00:24;25.92;;;22.80;;
9334;SDS011;4706;41.844;26.082;2024-03-08T02:02:53;26.23;;;22.50;;
9334;SDS011;4706;41.844;26.082;2024-03-08T02:05:19;24.30;;;21.70;;
9334;SDS011;4706;41.844;26.082;2024-03-08T02:07:45;26.20;;;21.08;;
9334;SDS011;4706;41.844;26.082;2024-03-08T02:10:11;25.98;;;22.05;;
9334;SDS011;4706;41.844;26.082;2024-03-08T02:12:37;28.40;;;22.15;;
9334;SDS011;4706;41.844;26.082;2024-03-08T02:15:04;25.55;;;20.92;;
9334;SDS011;4706;41.844;26.082;2024-03-08T02:17:32;24.15;;;21.38;;
9334;SDS011;4706;41.844;26.082;2024-03-08T02:19:58;22.92;;;20.35;;
9334;SDS011;4706;41.844;26.082;2024-03-08T02:22:27;23.08;;;20.40;;
9334;SDS011;4706;41.844;26.082;2024-03-08T02:24:54;23.17;;;20.23;;
9334;SDS011;4706;41.844;26.082;2024-03-08T02:27:23;23.83;;;20.48;;
9334;SDS011;4706;41.844;26.082;2024-03-08T02:29:51;22.15;;;19.42;;
9334;SDS011;4706;41.844;26.082;2024-03-08T02:32:23;24.42;;;20.95;;
9334;SDS011;4706;41.844;26.082;2024-03-08T02:34:49;24.50;;;20.02;;
9334;SDS011;4706;41.844;26.082;2024-03-08T02:37:18;22.65;;;19.25;;
9334;SDS011;4706;41.844;26.082;2024-03-08T02:39:43;25.10;;;20.48;;
9334;SDS011;4706;41.844;26.082;2024-03-08T02:42:09;22.27;;;19.92;;
9334;SDS011;4706;41.844;26.082;2024-03-08T02:44:34;22.50;;;19.42;;
9334;SDS011;4706;41.844;26.082;2024-03-08T02:47:00;20.73;;;18.52;;
9334;SDS011;4706;41.844;26.082;2024-03-08T02:49:26;22.38;;;18.98;;
9334;SDS011;4706;41.844;26.082;2024-03-08T02:51:54;21.33;;;17.35;;
9334;SDS011;4706;41.844;26.082;2024-03-08T02:54:22;20.55;;;16.65;;
9334;SDS011;4706;41.844;26.082;2024-03-08T02:56:49;19.92;;;17.17;;
9334;SDS011;4706;41.844;26.082;2024-03-08T02:59:17;18.05;;;16.13;;
9334;SDS011;4706;41.844;26.082;2024-03-08T03:01:44;19.00;;;17.00;;
9334;SDS011;4706;41.844;26.082;2024-03-08T03:04:09;21.30;;;17.23;;
9334;SDS011;4706;41.844;26.082;2024-03-08T03:06:34;19.48;;;16.40;;
9334;SDS011;4706;41.844;26.082;2024-03-08T03:09:00;20.52;;;16.23;;
9334;SDS011;4706;41.844;26.082;2024-03-08T03:11:27;23.17;;;18.05;;
9334;SDS011;4706;41.844;26.082;2024-03-08T03:13:52;21.05;;;18.65;;
9334;SDS011;4706;41.844;26.082;2024-03-08T03:16:18;23.58;;;17.77;;
9334;SDS011;4706;41.844;26.082;2024-03-08T03:18:48;19.13;;;17.08;;
9334;SDS011;4706;41.844;26.082;2024-03-08T03:21:14;23.98;;;18.45;;
9334;SDS011;4706;41.844;26.082;2024-03-08T03:23:40;20.35;;;17.58;;
9334;SDS011;4706;41.844;26.082;2024-03-08T03:26:07;20.50;;;17.75;;
9334;SDS011;4706;41.844;26.082;2024-03-08T03:28:33;19.95;;;17.52;;
9334;SDS011;4706;41.844;26.082;2024-03-08T03:30:59;21.67;;;18.73;;
9334;SDS011;4706;41.844;26.082;2024-03-08T03:33:24;21.75;;;18.13;;
9334;SDS011;4706;41.844;26.082;2024-03-08T03:35:50;20.25;;;17.02;;
9334;SDS011;4706;41.844;26.082;2024-03-08T03:38:17;20.40;;;17.33;;
9334;SDS011;4706;41.844;26.082;2024-03-08T03:40:43;22.48;;;18.35;;
9334;SDS011;4706;41.844;26.082;2024-03-08T03:43:10;25.23;;;19.97;;
9334;SDS011;4706;41.844;26.082;2024-03-08T03:45:36;22.40;;;19.23;;
9334;SDS011;4706;41.844;26.082;2024-03-08T03:48:05;21.10;;;18.80;;
9334;SDS011;4706;41.844;26.082;2024-03-08T03:50:31;22.00;;;18.53;;
9334;SDS011;4706;41.844;26.082;2024-03-08T03:52:59;20.92;;;17.83;;
9334;SDS011;4706;41.844;26.082;2024-03-08T03:55:25;22.80;;;18.43;;
9334;SDS011;4706;41.844;26.082;2024-03-08T03:57:50;22.75;;;19.42;;
9334;SDS011;4706;41.844;26.082;2024-03-08T04:00:16;24.10;;;20.27;;
9334;SDS011;4706;41.844;26.082;2024-03-08T04:02:41;22.98;;;20.23;;
9334;SDS011;4706;41.844;26.082;2024-03-08T04:05:07;27.08;;;20.65;;
9334;SDS011;4706;41.844;26.082;2024-03-08T04:07:34;23.73;;;20.90;;
9334;SDS011;4706;41.844;26.082;2024-03-08T04:10:04;26.52;;;22.10;;
9334;SDS011;4706;41.844;26.082;2024-03-08T04:12:34;23.77;;;20.37;;
9334;SDS011;4706;41.844;26.082;2024-03-08T04:14:59;24.05;;;21.42;;
9334;SDS011;4706;41.844;26.082;2024-03-08T04:17:25;23.77;;;19.92;;
9334;SDS011;4706;41.844;26.082;2024-03-08T04:19:51;24.00;;;20.48;;
9334;SDS011;4706;41.844;26.082;2024-03-08T04:22:17;28.33;;;22.40;;
9334;SDS011;4706;41.844;26.082;2024-03-08T04:24:46;24.73;;;20.75;;
9334;SDS011;4706;41.844;26.082;2024-03-08T04:27:12;24.63;;;19.13;;
9334;SDS011;4706;41.844;26.082;2024-03-08T04:29:39;29.00;;;21.50;;
9334;SDS011;4706;41.844;26.082;2024-03-08T04:32:05;26.35;;;20.38;;
9334;SDS011;4706;41.844;26.082;2024-03-08T04:34:32;23.35;;;20.13;;
9334;SDS011;4706;41.844;26.082;2024-03-08T04:36:57;24.90;;;19.23;;
9334;SDS011;4706;41.844;26.082;2024-03-08T04:39:23;27.02;;;21.30;;
9334;SDS011;4706;41.844;26.082;2024-03-08T04:41:49;24.30;;;20.38;;
9334;SDS011;4706;41.844;26.082;2024-03-08T04:44:15;25.55;;;20.02;;
9334;SDS011;4706;41.844;26.082;2024-03-08T04:46:42;26.08;;;22.70;;
9334;SDS011;4706;41.844;26.082;2024-03-08T04:49:08;24.05;;;20.60;;
9334;SDS011;4706;41.844;26.082;2024-03-08T04:51:33;24.83;;;21.02;;
9334;SDS011;4706;41.844;26.082;2024-03-08T04:53:59;26.73;;;20.20;;
9334;SDS011;4706;41.844;26.082;2024-03-08T04:56:25;25.13;;;20.15;;
9334;SDS011;4706;41.844;26.082;2024-03-08T04:58:51;22.63;;;19.77;;
9334;SDS011;4706;41.844;26.082;2024-03-08T05:01:16;24.27;;;19.55;;
9334;SDS011;4706;41.844;26.082;2024-03-08T05:03:42;23.02;;;20.08;;
9334;SDS011;4706;41.844;26.082;2024-03-08T05:06:07;22.67;;;20.17;;
9334;SDS011;4706;41.844;26.082;2024-03-08T05:08:33;25.48;;;21.02;;
9334;SDS011;4706;41.844;26.082;2024-03-08T05:10:59;22.38;;;19.20;;
9334;SDS011;4706;41.844;26.082;2024-03-08T05:13:29;27.55;;;21.25;;
9334;SDS011;4706;41.844;26.082;2024-03-08T05:15:56;28.55;;;22.30;;
9334;SDS011;4706;41.844;26.082;2024-03-08T05:18:23;23.40;;;20.20;;
9334;SDS011;4706;41.844;26.082;2024-03-08T05:20:49;22.20;;;19.65;;
9334;SDS011;4706;41.844;26.082;2024-03-08T05:23:15;27.45;;;20.70;;
9334;SDS011;4706;41.844;26.082;2024-03-08T05:25:40;23.40;;;19.17;;
9334;SDS011;4706;41.844;26.082;2024-03-08T05:28:06;24.25;;;19.92;;
9334;SDS011;4706;41.844;26.082;2024-03-08T05:30:32;26.13;;;22.38;;
9334;SDS011;4706;41.844;26.082;2024-03-08T05:32:57;24.05;;;20.25;;
9334;SDS011;4706;41.844;26.082;2024-03-08T05:35:22;29.00;;;21.90;;
9334;SDS011;4706;41.844;26.082;2024-03-08T05:37:49;26.27;;;23.48;;
9334;SDS011;4706;41.844;26.082;2024-03-08T05:40:15;26.40;;;21.40;;
9334;SDS011;4706;41.844;26.082;2024-03-08T05:42:40;26.10;;;21.98;;
9334;SDS011;4706;41.844;26.082;2024-03-08T05:45:06;26.35;;;21.50;;
9334;SDS011;4706;41.844;26.082;2024-03-08T05:47:32;24.20;;;20.75;;
9334;SDS011;4706;41.844;26.082;2024-03-08T05:50:00;25.83;;;21.67;;
9334;SDS011;4706;41.844;26.082;2024-03-08T05:52:26;30.23;;;23.92;;
9334;SDS011;4706;41.844;26.082;2024-03-08T05:54:52;29.63;;;25.83;;
9334;SDS011;4706;41.844;26.082;2024-03-08T05:57:17;29.35;;;23.75;;
9334;SDS011;4706;41.844;26.082;2024-03-08T05:59:43;27.15;;;23.45;;
9334;SDS011;4706;41.844;26.082;2024-03-08T06:02:08;28.80;;;23.60;;
9334;SDS011;4706;41.844;26.082;2024-03-08T06:04:34;31.80;;;24.08;;
9334;SDS011;4706;41.844;26.082;2024-03-08T06:06:59;122.35;;;89.30;;
9334;SDS011;4706;41.844;26.082;2024-03-08T06:09:25;55.90;;;40.20;;
9334;SDS011;4706;41.844;26.082;2024-03-08T06:11:51;36.55;;;30.23;;
9334;SDS011;4706;41.844;26.082;2024-03-08T06:14:18;36.45;;;29.48;;
9334;SDS011;4706;41.844;26.082;2024-03-08T06:16:44;31.85;;;26.50;;
9334;SDS011;4706;41.844;26.082;2024-03-08T06:19:10;31.23;;;25.70;;
9334;SDS011;4706;41.844;26.082;2024-03-08T06:21:37;33.75;;;28.23;;
9334;SDS011;4706;41.844;26.082;2024-03-08T06:24:02;32.45;;;25.17;;
9334;SDS011;4706;41.844;26.082;2024-03-08T06:26:28;31.15;;;26.05;;
9334;SDS011;4706;41.844;26.082;2024-03-08T06:28:54;27.85;;;24.65;;
9334;SDS011;4706;41.844;26.082;2024-03-08T06:31:20;28.20;;;24.92;;
9334;SDS011;4706;41.844;26.082;2024-03-08T06:33:45;26.38;;;23.55;;
9334;SDS011;4706;41.844;26.082;2024-03-08T06:36:11;26.73;;;23.30;;
9334;SDS011;4706;41.844;26.082;2024-03-08T06:38:40;32.05;;;27.05;;
9334;SDS011;4706;41.844;26.082;2024-03-08T06:41:11;33.90;;;27.08;;
9334;SDS011;4706;41.844;26.082;2024-03-08T06:43:46;27.33;;;22.05;;
9334;SDS011;4706;41.844;26.082;2024-03-08T06:46:16;25.05;;;21.05;;
9334;SDS011;4706;41.844;26.082;2024-03-08T06:48:43;23.10;;;20.70;;
9334;SDS011;4706;41.844;26.082;2024-03-08T06:51:08;25.75;;;21.25;;
9334;SDS011;4706;41.844;26.082;2024-03-08T06:53:36;28.15;;;25.23;;
9334;SDS011;4706;41.844;26.082;2024-03-08T06:56:02;31.00;;;24.75;;
9334;SDS011;4706;41.844;26.082;2024-03-08T06:58:28;29.67;;;25.48;;
9334;SDS011;4706;41.844;26.082;2024-03-08T07:00:54;35.50;;;29.90;;
9334;SDS011;4706;41.844;26.082;2024-03-08T07:03:23;30.35;;;25.92;;
9334;SDS011;4706;41.844;26.082;2024-03-08T07:05:49;29.10;;;25.85;;
9334;SDS011;4706;41.844;26.082;2024-03-08T07:08:14;25.42;;;22.77;;
9334;SDS011;4706;41.844;26.082;2024-03-08T07:10:41;26.98;;;23.55;;
9334;SDS011;4706;41.844;26.082;2024-03-08T07:13:08;24.20;;;20.65;;
9334;SDS011;4706;41.844;26.082;2024-03-08T07:15:34;26.27;;;23.25;;
9334;SDS011;4706;41.844;26.082;2024-03-08T07:18:00;24.92;;;21.92;;
9334;SDS011;4706;41.844;26.082;2024-03-08T07:20:26;27.95;;;22.42;;
9334;SDS011;4706;41.844;26.082;2024-03-08T07:22:51;24.33;;;21.10;;
9334;SDS011;4706;41.844;26.082;2024-03-08T07:25:17;26.48;;;21.48;;
9334;SDS011;4706;41.844;26.082;2024-03-08T07:27:53;27.58;;;23.27;;
9334;SDS011;4706;41.844;26.082;2024-03-08T07:30:20;28.40;;;23.90;;
9334;SDS011;4706;41.844;26.082;2024-03-08T07:33:05;26.83;;;23.95;;
9334;SDS011;4706;41.844;26.082;2024-03-08T07:35:32;28.23;;;24.90;;
9334;SDS011;4706;41.844;26.082;2024-03-08T07:38:02;36.30;;;27.05;;
9334;SDS011;4706;41.844;26.082;2024-03-08T07:40:31;31.02;;;27.10;;
9334;SDS011;4706;41.844;26.082;2024-03-08T07:43:00;36.03;;;31.23;;
9334;SDS011;4706;41.844;26.082;2024-03-08T07:45:25;34.38;;;29.15;;
9334;SDS011;4706;41.844;26.082;2024-03-08T07:47:51;36.33;;;27.98;;
9334;SDS011;4706;41.844;26.082;2024-03-08T07:50:18;30.88;;;27.23;;
9334;SDS011;4706;41.844;26.082;2024-03-08T07:52:44;38.38;;;31.40;;
9334;SDS011;4706;41.844;26.082;2024-03-08T07:55:10;50.25;;;38.05;;
9334;SDS011;4706;41.844;26.082;2024-03-08T07:57:35;48.42;;;35.75;;
9334;SDS011;4706;41.844;26.082;2024-03-08T08:00:04;46.08;;;35.75;;
9334;SDS011;4706;41.844;26.082;2024-03-08T08:02:32;40.95;;;33.90;;
9334;SDS011;4706;41.844;26.082;2024-03-08T08:04:59;30.90;;;27.13;;
9334;SDS011;4706;41.844;26.082;2024-03-08T08:07:24;29.67;;;24.42;;
9334;SDS011;4706;41.844;26.082;2024-03-08T08:09:50;28.77;;;23.33;;
9334;SDS011;4706;41.844;26.082;2024-03-08T08:12:17;37.63;;;26.35;;
9334;SDS011;4706;41.844;26.082;2024-03-08T08:14:42;35.30;;;25.35;;
9334;SDS011;4706;41.844;26.082;2024-03-08T08:17:08;37.13;;;29.33;;
9334;SDS011;4706;41.844;26.082;2024-03-08T08:19:34;36.05;;;29.48;;
9334;SDS011;4706;41.844;26.082;2024-03-08T08:22:03;37.35;;;29.05;;
9334;SDS011;4706;41.844;26.082;2024-03-08T08:24:29;33.47;;;25.55;;
9334;SDS011;4706;41.844;26.082;2024-03-08T08:26:55;33.80;;;28.85;;
9334;SDS011;4706;41.844;26.082;2024-03-08T08:29:21;28.10;;;23.75;;
9334;SDS011;4706;41.844;26.082;2024-03-08T08:31:47;27.85;;;24.88;;
9334;SDS011;4706;41.844;26.082;2024-03-08T08:34:15;24.60;;;21.85;;
9334;SDS011;4706;41.844;26.082;2024-03-08T08:36:42;32.63;;;28.38;;
9334;SDS011;4706;41.844;26.082;2024-03-08T08:39:07;27.70;;;24.58;;
9334;SDS011;4706;41.844;26.082;2024-03-08T08:41:39;28.63;;;22.30;;
9334;SDS011;4706;41.844;26.082;2024-03-08T08:44:06;21.27;;;18.40;;
9334;SDS011;4706;41.844;26.082;2024-03-08T08:46:35;19.10;;;16.65;;
9334;SDS011;4706;41.844;26.082;2024-03-08T08:49:03;20.98;;;17.60;;
9334;SDS011;4706;41.844;26.082;2024-03-08T08:51:29;18.13;;;15.73;;
9334;SDS011;4706;41.844;26.082;2024-03-08T08:53:54;19.27;;;15.23;;
9334;SDS011;4706;41.844;26.082;2024-03-08T08:56:21;17.75;;;15.65;;
9334;SDS011;4706;41.844;26.082;2024-03-08T08:58:47;16.73;;;14.90;;
9334;SDS011;4706;41.844;26.082;2024-03-08T09:01:14;15.77;;;14.13;;
9334;SDS011;4706;41.844;26.082;2024-03-08T09:03:40;17.83;;;15.02;;
9334;SDS011;4706;41.844;26.082;2024-03-08T09:06:09;21.38;;;19.27;;
9334;SDS011;4706;41.844;26.082;2024-03-08T09:08:37;15.07;;;13.57;;
9334;SDS011;4706;41.844;26.082;2024-03-08T09:11:05;14.57;;;13.07;;
9334;SDS011;4706;41.844;26.082;2024-03-08T09:13:32;13.73;;;12.43;;
9334;SDS011;4706;41.844;26.082;2024-03-08T09:15:59;12.32;;;11.15;;
9334;SDS011;4706;41.844;26.082;2024-03-08T09:18:24;14.43;;;13.02;;
9334;SDS011;4706;41.844;26.082;2024-03-08T09:20:50;14.65;;;13.25;;
9334;SDS011;4706;41.844;26.082;2024-03-08T09:23:16;14.88;;;13.38;;
9334;SDS011;4706;41.844;26.082;2024-03-08T09:25:44;14.75;;;12.38;;
9334;SDS011;4706;41.844;26.082;2024-03-08T09:28:10;15.05;;;13.45;;
9334;SDS011;4706;41.844;26.082;2024-03-08T09:30:37;14.98;;;13.35;;
9334;SDS011;4706;41.844;26.082;2024-03-08T09:33:03;19.65;;;14.77;;
9334;SDS011;4706;41.844;26.082;2024-03-08T09:35:29;17.67;;;15.40;;
9334;SDS011;4706;41.844;26.082;2024-03-08T09:37:55;16.85;;;13.55;;
9334;SDS011;4706;41.844;26.082;2024-03-08T09:40:21;18.00;;;14.85;;
9334;SDS011;4706;41.844;26.082;2024-03-08T09:42:49;18.30;;;16.42;;
9334;SDS011;4706;41.844;26.082;2024-03-08T09:45:15;19.92;;;16.02;;
9334;SDS011;4706;41.844;26.082;2024-03-08T09:47:42;18.13;;;14.18;;
9334;SDS011;4706;41.844;26.082;2024-03-08T09:50:09;14.65;;;12.93;;
9334;SDS011;4706;41.844;26.082;2024-03-08T09:52:38;14.32;;;12.82;;
9334;SDS011;4706;41.844;26.082;2024-03-08T09:55:04;15.20;;;13.35;;
9334;SDS011;4706;41.844;26.082;2024-03-08T09:57:36;15.25;;;13.25;;
9334;SDS011;4706;41.844;26.082;2024-03-08T10:00:03;13.55;;;12.15;;
9334;SDS011;4706;41.844;26.082;2024-03-08T10:02:45;14.80;;;13.02;;
9334;SDS011;4706;41.844;26.082;2024-03-08T10:05:12;16.63;;;13.82;;
9334;SDS011;4706;41.844;26.082;2024-03-08T10:07:37;20.35;;;15.75;;
9334;SDS011;4706;41.844;26.082;2024-03-08T10:10:03;17.45;;;15.65;;
9334;SDS011;4706;41.844;26.082;2024-03-08T10:12:29;16.88;;;14.80;;
9334;SDS011;4706;41.844;26.082;2024-03-08T10:14:58;15.63;;;13.85;;
9334;SDS011;4706;41.844;26.082;2024-03-08T10:17:23;12.70;;;11.43;;
9334;SDS011;4706;41.844;26.082;2024-03-08T10:19:49;14.30;;;11.52;;
9334;SDS011;4706;41.844;26.082;2024-03-08T10:22:16;12.63;;;10.77;;
9334;SDS011;4706;41.844;26.082;2024-03-08T10:24:44;13.43;;;11.02;;
9334;SDS011;4706;41.844;26.082;2024-03-08T10:27:11;12.85;;;11.50;;
9334;SDS011;4706;41.844;26.082;2024-03-08T10:29:36;13.05;;;11.45;;
9334;SDS011;4706;41.844;26.082;2024-03-08T10:32:04;13.65;;;10.48;;
9334;SDS011;4706;41.844;26.082;2024-03-08T10:34:32;12.18;;;10.05;;
9334;SDS011;4706;41.844;26.082;2024-03-08T10:36:59;13.27;;;10.57;;
9334;SDS011;4706;41.844;26.082;2024-03-08T10:39:29;12.40;;;9.82;;
9334;SDS011;4706;41.844;26.082;2024-03-08T10:42:02;14.63;;;11.32;;
9334;SDS011;4706;41.844;26.082;2024-03-08T10:49:37;15.43;;;12.07;;
9334;SDS011;4706;41.844;26.082;2024-03-08T10:52:04;17.48;;;10.30;;
9334;SDS011;4706;41.844;26.082;2024-03-08T10:54:33;24.23;;;11.88;;
9334;SDS011;4706;41.844;26.082;2024-03-08T10:57:03;13.07;;;10.98;;
9334;SDS011;4706;41.844;26.082;2024-03-08T10:59:30;15.90;;;12.70;;
9334;SDS011;4706;41.844;26.082;2024-03-08T11:01:59;26.00;;;12.45;;
9334;SDS011;4706;41.844;26.082;2024-03-08T11:04:25;12.07;;;9.55;;
9334;SDS011;4706;41.844;26.082;2024-03-08T11:06:51;16.00;;;11.40;;
9334;SDS011;4706;41.844;26.082;2024-03-08T11:09:33;24.52;;;13.10;;
9334;SDS011;4706;41.844;26.082;2024-03-08T11:12:19;11.13;;;10.05;;
9334;SDS011;4706;41.844;26.082;2024-03-08T11:14:51;12.30;;;11.05;;
9334;SDS011;4706;41.844;26.082;2024-03-08T11:19:59;12.18;;;10.88;;
9334;SDS011;4706;41.844;26.082;2024-03-08T11:22:33;11.57;;;10.35;;
9334;SDS011;4706;41.844;26.082;2024-03-08T11:25:01;18.17;;;10.30;;
9334;SDS011;4706;41.844;26.082;2024-03-08T11:27:37;18.92;;;8.95;;
9334;SDS011;4706;41.844;26.082;2024-03-08T11:30:04;11.48;;;8.65;;
9334;SDS011;4706;41.844;26.082;2024-03-08T11:32:36;8.43;;;7.53;;
9334;SDS011;4706;41.844;26.082;2024-03-08T11:35:17;9.32;;;7.10;;
9334;SDS011;4706;41.844;26.082;2024-03-08T11:37:44;7.38;;;6.68;;
9334;SDS011;4706;41.844;26.082;2024-03-08T11:40:13;9.32;;;7.72;;
9334;SDS011;4706;41.844;26.082;2024-03-08T11:42:45;9.82;;;7.93;;
9334;SDS011;4706;41.844;26.082;2024-03-08T11:45:17;13.40;;;9.32;;
9334;SDS011;4706;41.844;26.082;2024-03-08T11:47:46;14.68;;;10.80;;
9334;SDS011;4706;41.844;26.082;2024-03-08T11:50:13;12.85;;;10.82;;
9334;SDS011;4706;41.844;26.082;2024-03-08T11:52:39;15.77;;;12.63;;
9334;SDS011;4706;41.844;26.082;2024-03-08T11:55:05;12.82;;;11.52;;
9334;SDS011;4706;41.844;26.082;2024-03-08T11:57:31;13.80;;;10.13;;
9334;SDS011;4706;41.844;26.082;2024-03-08T11:59:57;14.60;;;10.68;;
9334;SDS011;4706;41.844;26.082;2024-03-08T12:02:31;14.50;;;11.65;;
9334;SDS011;4706;41.844;26.082;2024-03-08T12:04:57;12.35;;;9.45;;
9334;SDS011;4706;41.844;26.082;2024-03-08T12:07:24;16.05;;;11.38;;
9334;SDS011;4706;41.844;26.082;2024-03-08T12:12:47;13.82;;;8.52;;
9334;SDS011;4706;41.844;26.082;2024-03-08T12:15:16;9.50;;;8.20;;
9334;SDS011;4706;41.844;26.082;2024-03-08T12:17:43;11.82;;;8.52;;
9334;SDS011;4706;41.844;26.082;2024-03-08T12:20:19;16.65;;;9.63;;
9334;SDS011;4706;41.844;26.082;2024-03-08T12:22:55;10.10;;;9.20;;
9334;SDS011;4706;41.844;26.082;2024-03-08T12:25:27;13.18;;;10.32;;
9334;SDS011;4706;41.844;26.082;2024-03-08T12:27:56;17.35;;;13.82;;
9334;SDS011;4706;41.844;26.082;2024-03-08T12:30:24;16.17;;;10.40;;
9334;SDS011;4706;41.844;26.082;2024-03-08T12:32:53;14.00;;;10.93;;
9334;SDS011;4706;41.844;26.082;2024-03-08T12:35:25;10.38;;;9.30;;
9334;SDS011;4706;41.844;26.082;2024-03-08T12:37:52;13.65;;;9.15;;
9334;SDS011;4706;41.844;26.082;2024-03-08T12:40:25;12.68;;;8.90;;
9334;SDS011;4706;41.844;26.082;2024-03-08T12:42:52;14.65;;;9.15;;
9334;SDS011;4706;41.844;26.082;2024-03-08T12:45:18;11.00;;;8.90;;
9334;SDS011;4706;41.844;26.082;2024-03-08T12:47:43;13.55;;;8.35;;
9334;SDS011;4706;41.844;26.082;2024-03-08T12:50:10;11.32;;;9.52;;
9334;SDS011;4706;41.844;26.082;2024-03-08T12:52:36;21.05;;;10.85;;
9334;SDS011;4706;41.844;26.082;2024-03-08T12:55:02;27.23;;;11.30;;
9334;SDS011;4706;41.844;26.082;2024-03-08T12:57:28;10.57;;;7.93;;
9334;SDS011;4706;41.844;26.082;2024-03-08T12:59:53;24.20;;;9.90;;
9334;SDS011;4706;41.844;26.082;2024-03-08T13:02:19;20.63;;;8.52;;
9334;SDS011;4706;41.844;26.082;2024-03-08T13:04:46;11.07;;;8.75;;
9334;SDS011;4706;41.844;26.082;2024-03-08T13:07:20;11.80;;;10.40;;
9334;SDS011;4706;41.844;26.082;2024-03-08T13:09:46;14.05;;;8.27;;
9334;SDS011;4706;41.844;26.082;2024-03-08T13:12:12;12.73;;;8.57;;
9334;SDS011;4706;41.844;26.082;2024-03-08T13:14:37;14.40;;;8.60;;
9334;SDS011;4706;41.844;26.082;2024-03-08T13:17:05;10.80;;;7.78;;
9334;SDS011;4706;41.844;26.082;2024-03-08T13:19:35;8.75;;;7.85;;
9334;SDS011;4706;41.844;26.082;2024-03-08T13:22:02;16.65;;;11.43;;
9334;SDS011;4706;41.844;26.082;2024-03-08T13:24:29;14.75;;;9.88;;
9334;SDS011;4706;41.844;26.082;2024-03-08T13:26:55;10.30;;;7.88;;
9334;SDS011;4706;41.844;26.082;2024-03-08T13:29:21;11.60;;;7.47;;
9334;SDS011;4706;41.844;26.082;2024-03-08T13:31:48;15.05;;;8.73;;
9334;SDS011;4706;41.844;26.082;2024-03-08T13:34:17;15.95;;;10.20;;
9334;SDS011;4706;41.844;26.082;2024-03-08T13:36:43;31.83;;;18.50;;
9334;SDS011;4706;41.844;26.082;2024-03-08T13:39:09;31.60;;;15.45;;
9334;SDS011;4706;41.844;26.082;2024-03-08T13:41:41;29.65;;;16.27;;
9334;SDS011;4706;41.844;26.082;2024-03-08T13:44:10;15.40;;;10.95;;
9334;SDS011;4706;41.844;26.082;2024-03-08T13:46:35;21.67;;;17.20;;
9334;SDS011;4706;41.844;26.082;2024-03-08T13:49:04;12.20;;;8.82;;
9334;SDS011;4706;41.844;26.082;2024-03-08T13:51:32;11.40;;;9.63;;
9334;SDS011;4706;41.844;26.082;2024-03-08T13:53:58;20.73;;;9.35;;
9334;SDS011;4706;41.844;26.082;2024-03-08T13:56:26;13.82;;;9.15;;
9334;SDS011;4706;41.844;26.082;2024-03-08T13:58:52;15.77;;;11.68;;
9334;SDS011;4706;41.844;26.082;2024-03-08T14:01:20;14.73;;;9.45;;
9334;SDS011;4706;41.844;26.082;2024-03-08T14:03:46;23.33;;;15.60;;
9334;SDS011;4706;41.844;26.082;2024-03-08T14:06:11;14.38;;;10.05;;
9334;SDS011;4706;41.844;26.082;2024-03-08T14:08:37;12.50;;;10.50;;
9334;SDS011;4706;41.844;26.082;2024-03-08T14:11:05;11.60;;;9.27;;
9334;SDS011;4706;41.844;26.082;2024-03-08T14:13:41;22.80;;;13.55;;
9334;SDS011;4706;41.844;26.082;2024-03-08T14:16:13;23.67;;;16.45;;
9334;SDS011;4706;41.844;26.082;2024-03-08T14:18:38;22.33;;;15.35;;
9334;SDS011;4706;41.844;26.082;2024-03-08T14:21:04;23.35;;;13.60;;
9334;SDS011;4706;41.844;26.082;2024-03-08T14:23:30;24.67;;;16.27;;
9334;SDS011;4706;41.844;26.082;2024-03-08T14:25:58;30.85;;;15.68;;
9334;SDS011;4706;41.844;26.082;2024-03-08T14:28:24;11.68;;;8.82;;
9334;SDS011;4706;41.844;26.082;2024-03-08T14:30:49;11.85;;;8.30;;
9334;SDS011;4706;41.844;26.082;2024-03-08T14:33:15;10.15;;;8.80;;
9334;SDS011;4706;41.844;26.082;2024-03-08T14:35:41;10.07;;;8.25;;
9334;SDS011;4706;41.844;26.082;2024-03-08T14:38:08;9.32;;;8.23;;
9334;SDS011;4706;41.844;26.082;2024-03-08T14:40:34;9.95;;;7.43;;
9334;SDS011;4706;41.844;26.082;2024-03-08T14:43:01;8.50;;;7.53;;
9334;SDS011;4706;41.844;26.082;2024-03-08T14:45:27;14.02;;;7.63;;